createdAt,value
2019-03-12T00:00:28.810Z,8.90
2019-03-12T00:01:28.799Z,12.30
2019-03-12T00:02:28.782Z,12.60
2019-03-12T00:03:28.770Z,15.60
2019-03-12T00:04:28.820Z,15.70
2019-03-12T00:05:28.781Z,15.80
2019-03-12T00:06:28.748Z,11.40
2019-03-12T00:07:28.749Z,9.60
2019-03-12T00:08:28.721Z,14.10
2019-03-12T00:09:28.718Z,14.40
2019-03-12T00:10:28.766Z,9.50
2019-03-12T00:11:28.697Z,16.20
2019-03-12T00:12:28.691Z,14.90
2019-03-12T00:13:28.670Z,11.20
2019-03-12T00:14:28.695Z,14.80
2019-03-12T00:15:28.648Z,17.10
2019-03-12T00:16:28.662Z,12.30
2019-03-12T00:17:28.625Z,11.80
2019-03-12T00:18:28.837Z,9.80
2019-03-12T00:19:28.607Z,11.00
2019-03-12T00:20:28.599Z,10.60
2019-03-12T00:21:28.643Z,17.20
2019-03-12T00:22:28.700Z,12.60
2019-03-12T00:23:28.601Z,14.90
2019-03-12T00:24:28.596Z,11.50
2019-03-12T00:25:28.543Z,8.50
2019-03-12T00:26:28.536Z,11.70
2019-03-12T00:27:28.543Z,13.70
2019-03-12T00:28:28.582Z,10.50
2019-03-12T00:29:28.499Z,10.80
2019-03-12T00:30:28.490Z,9.70
2019-03-12T00:31:28.507Z,14.10
2019-03-12T00:32:28.476Z,15.00
2019-03-12T00:33:28.469Z,9.20
2019-03-12T00:34:28.482Z,10.10
2019-03-12T00:35:28.441Z,11.30
2019-03-12T00:36:28.478Z,11.10
2019-03-12T00:37:28.467Z,13.50
2019-03-12T00:38:28.411Z,10.40
2019-03-12T00:39:28.405Z,14.50
2019-03-12T00:40:28.416Z,17.10
2019-03-12T00:41:28.373Z,17.00
2019-03-12T00:42:28.366Z,15.70
2019-03-12T00:43:28.374Z,17.40
2019-03-12T00:44:28.350Z,14.50
2019-03-12T00:45:28.389Z,13.70
2019-03-12T00:46:28.354Z,19.10
2019-03-12T00:47:28.323Z,13.70
2019-03-12T00:48:28.393Z,17.10
2019-03-12T00:49:28.363Z,15.30
2019-03-12T00:50:28.280Z,19.10
2019-03-12T00:51:28.284Z,16.60
2019-03-12T00:52:28.280Z,14.40
2019-03-12T00:53:28.358Z,17.90
2019-03-12T00:54:28.315Z,16.80
2019-03-12T00:55:28.280Z,21.20
2019-03-12T00:56:28.306Z,12.50
2019-03-12T00:57:28.254Z,19.10
2019-03-12T00:58:28.286Z,12.00
2019-03-12T00:59:28.201Z,17.10
2019-03-12T01:00:28.266Z,15.60
2019-03-12T01:01:28.230Z,14.00
2019-03-12T01:02:28.197Z,13.80
2019-03-12T01:03:28.200Z,12.90
2019-03-12T01:04:28.156Z,19.50
2019-03-12T01:05:28.139Z,18.00
2019-03-12T01:06:28.151Z,19.10
2019-03-12T01:07:28.118Z,15.80
2019-03-12T01:08:28.126Z,19.40
2019-03-12T01:09:28.095Z,17.60
2019-03-12T01:10:28.072Z,19.60
2019-03-12T01:11:28.143Z,17.70
2019-03-12T01:12:28.069Z,19.60
2019-03-12T01:13:28.041Z,21.00
2019-03-12T01:14:28.144Z,15.30
2019-03-12T01:15:28.027Z,18.90
2019-03-12T01:16:28.014Z,22.00
2019-03-12T01:17:28.000Z,22.40
2019-03-12T01:18:28.010Z,16.70
2019-03-12T01:19:28.000Z,18.80
2019-03-12T01:20:27.995Z,17.00
2019-03-12T01:21:27.955Z,16.80
2019-03-12T01:22:27.946Z,19.20
2019-03-12T01:23:27.969Z,14.70
2019-03-12T01:24:27.934Z,15.20
2019-03-12T01:25:27.917Z,15.50
2019-03-12T01:26:27.939Z,17.80
2019-03-12T01:27:27.895Z,18.60
2019-03-12T01:28:27.897Z,18.70
2019-03-12T01:29:27.880Z,14.40
2019-03-12T01:30:27.872Z,17.70
2019-03-12T01:31:27.905Z,17.60
2019-03-12T01:32:27.891Z,15.20
2019-03-12T01:33:27.838Z,21.30
2019-03-12T01:34:27.851Z,16.20
2019-03-12T01:35:27.814Z,15.90
2019-03-12T01:36:27.812Z,15.80
2019-03-12T01:37:27.790Z,22.40
2019-03-12T01:38:27.789Z,17.90
2019-03-12T01:39:27.996Z,18.60
2019-03-12T01:40:27.905Z,22.50
2019-03-12T01:41:27.843Z,26.10
2019-03-12T01:42:27.754Z,20.60
2019-03-12T01:43:27.755Z,22.70
2019-03-12T01:44:27.796Z,20.50
2019-03-12T01:45:27.711Z,22.80
2019-03-12T01:46:27.723Z,20.40
2019-03-12T01:47:27.787Z,20.00
2019-03-12T01:48:27.680Z,24.40
2019-03-12T01:49:27.698Z,25.70
2019-03-12T01:50:27.716Z,23.30
2019-03-12T01:51:30.067Z,18.80
2019-03-12T01:52:27.639Z,22.00
2019-03-12T01:53:27.627Z,25.70
2019-03-12T01:54:27.647Z,24.70
2019-03-12T01:55:27.689Z,20.80
2019-03-12T01:56:27.640Z,23.20
2019-03-12T01:57:27.614Z,25.30
2019-03-12T01:58:27.621Z,28.60
2019-03-12T01:59:27.668Z,22.70
2019-03-12T02:00:27.622Z,24.70
2019-03-12T02:01:27.555Z,24.60
2019-03-12T02:02:27.605Z,24.40
2019-03-12T02:03:27.655Z,24.10
2019-03-12T02:04:27.655Z,26.70
2019-03-12T02:05:27.507Z,22.00
2019-03-12T02:06:27.563Z,24.20
2019-03-12T02:07:27.515Z,22.50
2019-03-12T02:08:27.519Z,26.40
2019-03-12T02:09:27.533Z,22.50
2019-03-12T02:10:27.534Z,26.60
2019-03-12T02:11:27.479Z,34.00
2019-03-12T02:12:27.421Z,21.10
2019-03-12T02:13:27.453Z,26.20
2019-03-12T02:14:27.420Z,23.10
2019-03-12T02:15:27.438Z,22.00
2019-03-12T02:16:27.482Z,26.40
2019-03-12T02:17:27.421Z,23.90
2019-03-12T02:18:27.411Z,22.50
2019-03-12T02:19:27.351Z,24.20
2019-03-12T02:20:27.358Z,27.90
2019-03-12T02:21:27.782Z,24.30
2019-03-12T02:22:27.338Z,26.00
2019-03-12T02:23:28.950Z,20.70
2019-03-12T02:24:27.319Z,29.10
2019-03-12T02:25:27.297Z,26.30
2019-03-12T02:26:27.337Z,29.10
2019-03-12T02:27:27.304Z,23.50
2019-03-12T02:28:27.276Z,25.60
2019-03-12T02:29:27.346Z,29.10
2019-03-12T02:30:27.289Z,28.60
2019-03-12T02:31:27.237Z,27.20
2019-03-12T02:32:27.240Z,22.70
2019-03-12T02:33:27.306Z,28.20
2019-03-12T02:34:27.201Z,27.00
2019-03-12T02:35:27.236Z,33.00
2019-03-12T02:36:27.194Z,36.60
2019-03-12T02:37:27.202Z,25.30
2019-03-12T02:38:27.175Z,28.10
2019-03-12T02:39:27.222Z,30.50
2019-03-12T02:40:27.241Z,27.30
2019-03-12T02:41:27.122Z,31.70
2019-03-12T02:42:27.170Z,36.00
2019-03-12T02:43:27.103Z,29.50
2019-03-12T02:44:27.101Z,32.50
2019-03-12T02:45:27.165Z,30.70
2019-03-12T02:46:27.114Z,32.30
2019-03-12T02:47:27.067Z,28.10
2019-03-12T02:48:27.131Z,25.90
2019-03-12T02:49:27.098Z,31.10
2019-03-12T02:50:27.027Z,28.50
2019-03-12T02:51:27.045Z,25.80
2019-03-12T02:52:27.048Z,30.70
2019-03-12T02:53:27.057Z,36.70
2019-03-12T02:54:27.043Z,39.40
2019-03-12T02:55:27.058Z,30.80
2019-03-12T02:56:26.975Z,29.00
2019-03-12T02:57:26.990Z,33.60
2019-03-12T02:58:26.974Z,41.40
2019-03-12T02:59:27.005Z,27.70
2019-03-12T03:00:27.067Z,31.80
2019-03-12T03:01:26.970Z,28.70
2019-03-12T03:02:26.968Z,28.90
2019-03-12T03:03:26.981Z,34.20
2019-03-12T03:04:26.941Z,28.30
2019-03-12T03:05:26.909Z,28.10
2019-03-12T03:06:26.899Z,30.20
2019-03-12T03:07:26.943Z,34.50
2019-03-12T03:08:26.873Z,31.60
2019-03-12T03:09:26.842Z,26.40
2019-03-12T03:10:26.918Z,34.40
2019-03-12T03:11:26.841Z,30.50
2019-03-12T03:12:26.816Z,32.80
2019-03-12T03:13:26.783Z,34.70
2019-03-12T03:14:26.862Z,30.30
2019-03-12T03:15:26.820Z,31.20
2019-03-12T03:16:26.885Z,32.90
2019-03-12T03:17:26.815Z,31.90
2019-03-12T03:18:26.744Z,28.20
2019-03-12T03:19:26.802Z,32.80
2019-03-12T03:20:26.737Z,30.40
2019-03-12T03:21:26.770Z,26.60
2019-03-12T03:22:26.741Z,28.70
2019-03-12T03:23:26.717Z,24.30
2019-03-12T03:24:26.785Z,30.00
2019-03-12T03:25:26.669Z,35.20
2019-03-12T03:26:26.691Z,35.50
2019-03-12T03:27:29.333Z,32.90
2019-03-12T03:28:26.708Z,30.60
2019-03-12T03:29:26.652Z,28.00
2019-03-12T03:30:26.616Z,34.30
2019-03-12T03:31:26.650Z,33.80
2019-03-12T03:32:26.828Z,35.00
2019-03-12T03:33:26.617Z,36.70
2019-03-12T03:34:28.080Z,30.10
2019-03-12T03:35:26.646Z,35.00
2019-03-12T03:36:26.544Z,32.30
2019-03-12T03:37:26.544Z,34.80
2019-03-12T03:38:26.595Z,30.60
2019-03-12T03:39:26.517Z,34.90
2019-03-12T03:40:26.629Z,33.00
2019-03-12T03:41:26.552Z,39.00
2019-03-12T03:42:26.506Z,34.10
2019-03-12T03:43:26.484Z,35.80
2019-03-12T03:44:26.465Z,38.90
2019-03-12T03:45:26.529Z,39.30
2019-03-12T03:46:26.595Z,36.30
2019-03-12T03:47:26.500Z,40.60
2019-03-12T03:48:26.486Z,33.90
2019-03-12T03:49:26.426Z,37.20
2019-03-12T03:50:26.474Z,39.70
2019-03-12T03:51:26.412Z,42.10
2019-03-12T03:52:26.517Z,39.50
2019-03-12T03:53:26.370Z,28.00
2019-03-12T03:54:26.404Z,37.20
2019-03-12T03:55:26.409Z,35.40
2019-03-12T03:56:26.371Z,32.30
2019-03-12T03:57:26.335Z,38.40
2019-03-12T03:58:26.462Z,32.90
2019-03-12T03:59:26.348Z,31.50
2019-03-12T04:00:26.304Z,37.10
2019-03-12T04:01:26.407Z,31.60
2019-03-12T04:02:26.300Z,35.80
2019-03-12T04:03:26.268Z,35.40
2019-03-12T04:04:26.288Z,28.40
2019-03-12T04:05:26.282Z,31.50
2019-03-12T04:06:26.284Z,33.10
2019-03-12T04:07:26.307Z,32.20
2019-03-12T04:08:26.251Z,30.90
2019-03-12T04:09:26.215Z,31.10
2019-03-12T04:10:26.302Z,27.70
2019-03-12T04:11:26.215Z,25.20
2019-03-12T04:12:26.273Z,25.20
2019-03-12T04:13:26.241Z,30.00
2019-03-12T04:14:26.169Z,27.20
2019-03-12T04:15:26.184Z,35.20
2019-03-12T04:16:26.173Z,30.00
2019-03-12T04:17:26.155Z,28.30
2019-03-12T04:18:26.152Z,30.60
2019-03-12T04:19:26.213Z,27.70
2019-03-12T04:20:26.100Z,30.80
2019-03-12T04:21:26.095Z,29.80
2019-03-12T04:22:26.103Z,32.10
2019-03-12T04:23:26.096Z,26.10
2019-03-12T04:24:26.055Z,26.40
2019-03-12T04:25:26.060Z,23.70
2019-03-12T04:26:26.090Z,24.60
2019-03-12T04:27:26.185Z,26.60
2019-03-12T04:28:26.129Z,23.10
2019-03-12T04:29:26.025Z,28.00
2019-03-12T04:30:25.981Z,24.50
2019-03-12T04:31:25.979Z,19.60
2019-03-12T04:32:25.965Z,22.80
2019-03-12T04:33:26.041Z,28.10
2019-03-12T04:34:25.976Z,18.30
2019-03-12T04:35:25.931Z,19.60
2019-03-12T04:36:25.929Z,20.20
2019-03-12T04:37:25.917Z,22.20
2019-03-12T04:38:25.899Z,21.20
2019-03-12T04:39:25.886Z,21.00
2019-03-12T04:40:25.947Z,17.90
2019-03-12T04:41:25.894Z,22.80
2019-03-12T04:42:25.873Z,18.80
2019-03-12T04:43:25.851Z,21.30
2019-03-12T04:44:25.847Z,23.00
2019-03-12T04:45:25.845Z,16.30
2019-03-12T04:46:25.831Z,22.00
2019-03-12T04:47:25.823Z,21.40
2019-03-12T04:48:25.809Z,20.70
2019-03-12T04:49:25.814Z,16.80
2019-03-12T04:50:25.772Z,21.00
2019-03-12T04:51:25.788Z,25.80
2019-03-12T04:52:25.753Z,20.10
2019-03-12T04:53:25.738Z,25.60
2019-03-12T04:54:25.748Z,21.10
2019-03-12T04:55:25.750Z,18.40
2019-03-12T04:56:25.725Z,15.10
2019-03-12T04:57:25.704Z,16.40
2019-03-12T04:58:25.746Z,20.50
2019-03-12T04:59:25.680Z,26.20
2019-03-12T05:00:25.664Z,19.50
2019-03-12T05:01:25.692Z,19.50
2019-03-12T05:02:25.665Z,19.80
2019-03-12T05:03:25.641Z,19.00
2019-03-12T05:04:25.627Z,22.30
2019-03-12T05:05:25.621Z,17.50
2019-03-12T05:06:25.606Z,18.70
2019-03-12T05:07:25.601Z,18.70
2019-03-12T05:08:25.701Z,18.10
2019-03-12T05:09:25.609Z,20.50
2019-03-12T05:10:25.739Z,31.30
2019-03-12T05:11:25.598Z,17.50
2019-03-12T05:12:25.618Z,19.30
2019-03-12T05:13:25.597Z,21.50
2019-03-12T05:14:25.549Z,19.90
2019-03-12T05:15:25.528Z,14.50
2019-03-12T05:16:25.544Z,16.70
2019-03-12T05:17:25.486Z,18.60
2019-03-12T05:18:25.510Z,19.00
2019-03-12T05:19:25.478Z,17.60
2019-03-12T05:20:25.501Z,18.10
2019-03-12T05:21:25.515Z,11.40
2019-03-12T05:22:25.500Z,20.00
2019-03-12T05:23:25.462Z,16.10
2019-03-12T05:24:25.462Z,12.40
2019-03-12T05:25:25.500Z,17.60
2019-03-12T05:26:25.457Z,22.50
2019-03-12T05:27:25.455Z,19.40
2019-03-12T05:28:25.376Z,21.10
2019-03-12T05:29:25.372Z,14.50
2019-03-12T05:30:25.396Z,18.40
2019-03-12T05:31:25.399Z,16.30
2019-03-12T05:32:25.386Z,14.60
2019-03-12T05:33:25.328Z,20.30
2019-03-12T05:34:25.321Z,16.90
2019-03-12T05:35:25.346Z,16.20
2019-03-12T05:36:26.390Z,16.10
2019-03-12T05:37:25.392Z,16.10
2019-03-12T05:38:25.288Z,21.70
2019-03-12T05:39:25.291Z,12.90
2019-03-12T05:40:25.251Z,14.90
2019-03-12T05:41:25.243Z,19.40
2019-03-12T05:42:25.293Z,17.70
2019-03-12T05:43:25.317Z,20.30
2019-03-12T05:44:25.211Z,18.20
2019-03-12T05:45:25.247Z,16.60
2019-03-12T05:46:25.190Z,14.70
2019-03-12T05:47:25.227Z,18.90
2019-03-12T05:48:25.195Z,16.30
2019-03-12T05:49:25.163Z,18.10
2019-03-12T05:50:25.186Z,16.60
2019-03-12T05:51:25.193Z,19.40
2019-03-12T05:52:25.166Z,16.40
2019-03-12T05:53:25.151Z,16.30
2019-03-12T05:54:25.116Z,19.00
2019-03-12T05:55:25.119Z,15.50
2019-03-12T05:56:25.086Z,19.30
2019-03-12T05:57:25.215Z,14.20
2019-03-12T05:58:25.075Z,13.10
2019-03-12T05:59:25.154Z,12.80
2019-03-12T06:00:25.061Z,18.10
2019-03-12T06:01:25.040Z,15.40
2019-03-12T06:02:25.030Z,13.40
2019-03-12T06:03:25.039Z,17.40
2019-03-12T06:04:25.011Z,21.70
2019-03-12T06:05:25.003Z,18.00
2019-03-12T06:06:24.986Z,16.90
2019-03-12T06:07:24.992Z,12.60
2019-03-12T06:08:25.000Z,14.80
2019-03-12T06:09:30.239Z,14.20
2019-03-12T06:10:25.950Z,14.80
2019-03-12T06:11:24.946Z,18.50
2019-03-12T06:12:25.039Z,15.10
2019-03-12T06:13:24.967Z,16.70
2019-03-12T06:14:24.922Z,10.30
2019-03-12T06:15:24.959Z,10.90
2019-03-12T06:16:24.929Z,15.20
2019-03-12T06:17:24.871Z,18.20
2019-03-12T06:18:24.864Z,14.70
2019-03-12T06:19:24.894Z,23.40
2019-03-12T06:20:24.870Z,14.50
2019-03-12T06:21:24.877Z,13.90
2019-03-12T06:22:24.901Z,13.80
2019-03-12T06:23:24.804Z,19.10
2019-03-12T06:24:24.801Z,10.80
2019-03-12T06:25:24.885Z,15.60
2019-03-12T06:26:24.808Z,12.50
2019-03-12T06:27:24.765Z,14.40
2019-03-12T06:28:24.819Z,15.90
2019-03-12T06:29:24.754Z,14.90
2019-03-12T06:30:25.948Z,10.90
2019-03-12T06:31:24.738Z,13.40
2019-03-12T06:32:24.784Z,12.50
2019-03-12T06:33:24.739Z,15.90
2019-03-12T06:34:24.779Z,12.90
2019-03-12T06:35:24.714Z,15.70
2019-03-12T06:36:24.790Z,11.40
2019-03-12T06:37:24.734Z,13.50
2019-03-12T06:38:24.775Z,19.20
2019-03-12T06:39:24.634Z,9.80
2019-03-12T06:40:24.727Z,12.50
2019-03-12T06:41:24.682Z,12.70
2019-03-12T06:42:24.600Z,12.30
2019-03-12T06:43:24.605Z,16.30
2019-03-12T06:44:24.603Z,13.00
2019-03-12T06:45:24.636Z,11.90
2019-03-12T06:46:24.672Z,9.80
2019-03-12T06:47:24.597Z,18.00
2019-03-12T06:48:24.574Z,10.50
2019-03-12T06:49:24.549Z,8.90
2019-03-12T06:50:24.557Z,17.40
2019-03-12T06:51:24.515Z,15.50
2019-03-12T06:52:24.620Z,11.60
2019-03-12T06:53:24.505Z,11.80
2019-03-12T06:54:24.537Z,13.90
2019-03-12T06:55:24.536Z,11.90
2019-03-12T06:56:24.503Z,13.60
2019-03-12T06:57:24.493Z,13.60
2019-03-12T06:58:24.509Z,11.40
2019-03-12T06:59:24.449Z,14.00
2019-03-12T07:00:24.475Z,12.10
2019-03-12T07:01:24.431Z,10.00
2019-03-12T07:02:24.390Z,8.50
2019-03-12T07:03:24.394Z,16.00
2019-03-12T07:04:24.400Z,14.70
2019-03-12T07:05:24.474Z,12.10
2019-03-12T07:06:24.374Z,10.60
2019-03-12T07:07:24.418Z,15.20
2019-03-12T07:08:24.326Z,11.40
2019-03-12T07:09:24.381Z,16.30
2019-03-12T07:10:24.308Z,9.00
2019-03-12T07:11:24.406Z,10.60
2019-03-12T07:12:24.299Z,6.20
2019-03-12T07:13:24.395Z,10.00
2019-03-12T07:14:24.291Z,8.20
2019-03-12T07:15:24.255Z,11.00
2019-03-12T07:16:24.340Z,8.40
2019-03-12T07:17:24.321Z,10.50
2019-03-12T07:18:24.279Z,15.50
2019-03-12T07:19:24.475Z,10.70
2019-03-12T07:20:24.287Z,9.10
2019-03-12T07:21:24.250Z,6.40
2019-03-12T07:22:24.245Z,12.80
2019-03-12T07:23:24.331Z,8.90
2019-03-12T07:24:24.184Z,12.30
2019-03-12T07:25:24.233Z,8.20
2019-03-12T07:26:24.194Z,7.50
2019-03-12T07:27:24.134Z,10.20
2019-03-12T07:28:24.132Z,8.90
2019-03-12T07:29:24.163Z,7.90
2019-03-12T07:30:24.120Z,9.70
2019-03-12T07:31:24.234Z,9.80
2019-03-12T07:32:24.104Z,7.20
2019-03-12T07:33:24.070Z,11.50
2019-03-12T07:34:35.889Z,11.30
2019-03-12T07:35:25.083Z,9.30
2019-03-12T07:36:24.269Z,7.40
2019-03-12T07:37:24.049Z,7.80
2019-03-12T07:38:24.077Z,7.20
2019-03-12T07:39:24.073Z,10.60
2019-03-12T07:40:24.065Z,9.10
2019-03-12T07:41:31.896Z,6.30
2019-03-12T07:42:25.016Z,11.60
2019-03-12T07:43:24.077Z,9.80
2019-03-12T07:44:23.959Z,11.40
2019-03-12T07:45:23.994Z,10.10
2019-03-12T07:46:23.941Z,11.40
2019-03-12T07:47:35.281Z,8.50
2019-03-12T07:48:24.941Z,10.30
2019-03-12T07:49:23.982Z,10.00
2019-03-12T07:50:23.888Z,14.10
2019-03-12T07:51:23.960Z,7.60
2019-03-12T07:52:23.902Z,9.00
2019-03-12T07:53:23.862Z,10.70
2019-03-12T07:54:24.703Z,7.50
2019-03-12T07:55:23.925Z,10.50
2019-03-12T07:56:23.842Z,9.90
2019-03-12T07:57:23.898Z,9.80
2019-03-12T07:58:35.177Z,10.50
2019-03-12T07:59:24.819Z,13.80
2019-03-12T08:00:23.799Z,8.60
2019-03-12T08:01:25.012Z,9.90
2019-03-12T08:02:23.777Z,7.30
2019-03-12T08:03:23.770Z,11.50
2019-03-12T08:04:23.742Z,11.90
2019-03-12T08:05:23.745Z,8.70
2019-03-12T08:06:23.748Z,10.00
2019-03-12T08:07:23.709Z,10.00
2019-03-12T08:08:23.760Z,11.40
2019-03-12T08:09:23.685Z,8.90
2019-03-12T08:10:23.698Z,11.40
2019-03-12T08:11:23.738Z,7.30
2019-03-12T08:12:23.693Z,9.60
2019-03-12T08:13:23.637Z,10.00
2019-03-12T08:14:26.764Z,7.70
2019-03-12T08:15:23.644Z,12.50
2019-03-12T08:16:23.715Z,9.60
2019-03-12T08:17:23.610Z,12.60
2019-03-12T08:18:23.623Z,9.00
2019-03-12T08:19:23.583Z,9.90
2019-03-12T08:20:23.562Z,12.70
2019-03-12T08:21:23.590Z,11.40
2019-03-12T08:22:23.642Z,10.10
2019-03-12T08:23:23.776Z,11.20
2019-03-12T08:24:23.580Z,6.50
2019-03-12T08:25:24.226Z,10.40
2019-03-12T08:26:23.521Z,10.30
2019-03-12T08:27:25.982Z,15.50
2019-03-12T08:28:23.492Z,9.10
2019-03-12T08:29:23.479Z,11.30
2019-03-12T08:30:23.492Z,11.40
2019-03-12T08:31:23.505Z,11.50
2019-03-12T08:32:23.983Z,8.10
2019-03-12T08:33:23.631Z,9.10
2019-03-12T08:34:23.425Z,7.20
2019-03-12T08:35:23.429Z,9.40
2019-03-12T08:36:23.436Z,7.70
2019-03-12T08:37:23.453Z,10.00
2019-03-12T08:38:23.387Z,10.70
2019-03-12T08:39:23.500Z,12.60
2019-03-12T08:40:23.362Z,12.00
2019-03-12T08:41:23.394Z,11.10
2019-03-12T08:42:23.624Z,8.40
2019-03-12T08:43:23.324Z,8.50
2019-03-12T08:44:26.240Z,6.40
2019-03-12T08:45:23.354Z,10.10
2019-03-12T08:46:23.303Z,14.50
2019-03-12T08:47:23.280Z,9.40
2019-03-12T08:48:23.409Z,10.70
2019-03-12T08:49:23.265Z,9.20
2019-03-12T08:50:23.495Z,11.60
2019-03-12T08:51:23.320Z,6.40
2019-03-12T08:52:23.372Z,9.40
2019-03-12T08:53:23.255Z,8.60
2019-03-12T08:54:23.211Z,7.90
2019-03-12T08:55:23.231Z,9.70
2019-03-12T08:56:23.194Z,5.30
2019-03-12T08:57:23.172Z,7.80
2019-03-12T08:58:23.165Z,12.90
2019-03-12T08:59:23.226Z,10.60
2019-03-12T09:00:24.238Z,8.60
2019-03-12T09:01:23.171Z,11.50
2019-03-12T09:02:23.160Z,7.70
2019-03-12T09:03:23.112Z,7.70
2019-03-12T09:04:23.134Z,8.30
2019-03-12T09:05:23.358Z,10.50
2019-03-12T09:06:23.100Z,10.80
2019-03-12T09:07:23.066Z,9.30
2019-03-12T09:08:23.246Z,11.50
2019-03-12T09:09:23.051Z,6.70
2019-03-12T09:10:23.055Z,11.00
2019-03-12T09:11:23.024Z,9.70
2019-03-12T09:12:23.015Z,9.00
2019-03-12T09:13:23.002Z,10.40
2019-03-12T09:14:23.086Z,7.50
2019-03-12T09:15:22.981Z,8.60
2019-03-12T09:16:23.015Z,9.40
2019-03-12T09:17:22.988Z,10.30
2019-03-12T09:18:23.118Z,9.40
2019-03-12T09:19:22.952Z,11.00
2019-03-12T09:20:22.926Z,9.10
2019-03-12T09:21:22.918Z,7.40
2019-03-12T09:22:22.978Z,8.10
2019-03-12T09:23:22.895Z,9.00
2019-03-12T09:24:22.963Z,8.00
2019-03-12T09:25:22.885Z,7.80
2019-03-12T09:26:22.893Z,8.20
2019-03-12T09:27:22.873Z,7.80
2019-03-12T09:28:22.868Z,11.30
2019-03-12T09:29:22.832Z,9.90
2019-03-12T09:30:22.833Z,11.00
2019-03-12T09:31:22.874Z,7.90
2019-03-12T09:32:22.832Z,8.30
2019-03-12T09:33:22.821Z,11.10
2019-03-12T09:34:22.786Z,10.10
2019-03-12T09:35:22.782Z,7.60
2019-03-12T09:36:22.837Z,10.00
2019-03-12T09:37:22.754Z,11.10
2019-03-12T09:38:22.752Z,9.00
2019-03-12T09:39:22.736Z,9.20
2019-03-12T09:40:22.763Z,7.50
2019-03-12T09:41:22.827Z,9.50
2019-03-12T09:42:22.694Z,9.00
2019-03-12T09:43:22.686Z,7.20
2019-03-12T09:44:22.742Z,8.10
2019-03-12T09:45:22.690Z,11.40
2019-03-12T09:46:22.806Z,8.60
2019-03-12T09:47:22.640Z,5.90
2019-03-12T09:48:22.629Z,7.50
2019-03-12T09:49:22.632Z,6.50
2019-03-12T09:50:22.730Z,8.10
2019-03-12T09:51:22.626Z,9.40
2019-03-12T09:52:22.590Z,11.60
2019-03-12T09:53:22.589Z,5.60
2019-03-12T09:54:22.579Z,6.90
2019-03-12T09:55:22.562Z,8.10
2019-03-12T09:56:22.584Z,7.40
2019-03-12T09:57:22.548Z,7.00
2019-03-12T09:58:22.526Z,11.40
2019-03-12T09:59:22.512Z,7.90
2019-03-12T10:00:22.507Z,13.60
2019-03-12T10:01:22.500Z,5.60
2019-03-12T10:02:22.534Z,8.20
2019-03-12T10:03:22.470Z,8.10
2019-03-12T10:04:22.575Z,8.90
2019-03-12T10:05:22.446Z,8.30
2019-03-12T10:06:22.439Z,8.10
2019-03-12T10:07:22.640Z,7.20
2019-03-12T10:08:22.460Z,9.10
2019-03-12T10:09:22.424Z,7.10
2019-03-12T10:10:22.417Z,9.30
2019-03-12T10:11:22.383Z,6.10
2019-03-12T10:12:22.370Z,11.00
2019-03-12T10:13:22.366Z,10.90
2019-03-12T10:14:22.393Z,8.60
2019-03-12T10:15:22.351Z,9.70
2019-03-12T10:16:22.326Z,8.20
2019-03-12T10:17:22.318Z,9.10
2019-03-12T10:18:22.306Z,8.10
2019-03-12T10:19:22.357Z,6.40
2019-03-12T10:20:22.325Z,9.40
2019-03-12T10:21:22.316Z,8.20
2019-03-12T10:22:22.282Z,10.80
2019-03-12T10:23:22.279Z,7.90
2019-03-12T10:24:22.246Z,10.70
2019-03-12T10:25:22.236Z,8.10
2019-03-12T10:26:22.227Z,7.20
2019-03-12T10:27:22.226Z,11.30
2019-03-12T10:28:22.386Z,7.40
2019-03-12T10:29:22.199Z,5.80
2019-03-12T10:30:22.187Z,9.10
2019-03-12T10:31:22.238Z,8.10
2019-03-12T10:32:22.161Z,5.90
2019-03-12T10:33:22.147Z,6.90
2019-03-12T10:34:29.674Z,6.60
2019-03-12T10:35:23.153Z,9.70
2019-03-12T10:36:22.250Z,4.90
2019-03-12T10:37:22.115Z,5.40
2019-03-12T10:38:22.100Z,9.80
2019-03-12T10:39:22.079Z,9.00
2019-03-12T10:40:22.092Z,5.60
2019-03-12T10:41:22.123Z,13.20
2019-03-12T10:42:22.049Z,6.40
2019-03-12T10:43:22.048Z,6.60
2019-03-12T10:44:22.034Z,6.20
2019-03-12T10:45:22.014Z,7.50
2019-03-12T10:46:22.029Z,6.80
2019-03-12T10:47:22.021Z,4.50
2019-03-12T10:48:21.994Z,5.00
2019-03-12T10:49:21.982Z,6.50
2019-03-12T10:50:21.977Z,8.50
2019-03-12T10:51:21.957Z,8.40
2019-03-12T10:52:21.970Z,9.00
2019-03-12T10:53:21.957Z,6.20
2019-03-12T10:54:21.931Z,6.10
2019-03-12T10:55:21.915Z,8.40
2019-03-12T10:56:21.904Z,14.30
2019-03-12T10:57:21.888Z,9.00
2019-03-12T10:58:21.895Z,7.90
2019-03-12T10:59:21.890Z,8.10
2019-03-12T11:00:21.861Z,7.30
2019-03-12T11:01:21.858Z,9.60
2019-03-12T11:02:21.844Z,8.00
2019-03-12T11:03:21.872Z,5.30
2019-03-12T11:04:21.813Z,10.80
2019-03-12T11:05:21.839Z,8.50
2019-03-12T11:06:21.798Z,8.20
2019-03-12T11:07:21.783Z,6.90
2019-03-12T11:08:21.795Z,12.00
2019-03-12T11:09:21.762Z,6.50
2019-03-12T11:10:21.756Z,7.00
2019-03-12T11:11:21.760Z,7.90
2019-03-12T11:12:21.730Z,6.00
2019-03-12T11:13:21.718Z,5.80
2019-03-12T11:14:21.751Z,6.90
2019-03-12T11:15:21.707Z,6.60
2019-03-12T11:16:21.700Z,4.60
2019-03-12T11:17:21.698Z,5.60
2019-03-12T11:18:21.662Z,5.60
2019-03-12T11:19:21.677Z,8.20
2019-03-12T11:20:21.678Z,8.60
2019-03-12T11:21:21.633Z,5.80
2019-03-12T11:22:21.675Z,7.20
2019-03-12T11:23:21.614Z,5.90
2019-03-12T11:24:21.653Z,6.30
2019-03-12T11:25:27.048Z,10.00
2019-03-12T11:26:22.576Z,9.80
2019-03-12T11:27:21.567Z,6.40
2019-03-12T11:28:21.569Z,6.30
2019-03-12T11:29:21.570Z,6.30
2019-03-12T11:30:21.580Z,5.50
2019-03-12T11:31:21.526Z,3.00
2019-03-12T11:32:21.522Z,5.30
2019-03-12T11:33:21.517Z,5.80
2019-03-12T11:34:21.498Z,5.70
2019-03-12T11:35:21.517Z,5.40
2019-03-12T11:36:21.525Z,5.00
2019-03-12T11:37:21.474Z,6.80
2019-03-12T11:38:21.465Z,7.00
2019-03-12T11:39:21.439Z,4.70
2019-03-12T11:40:21.465Z,5.30
2019-03-12T11:41:21.449Z,6.30
2019-03-12T11:42:21.442Z,5.30
2019-03-12T11:43:21.414Z,6.70
2019-03-12T11:44:21.419Z,6.90
2019-03-12T11:45:34.907Z,4.50
2019-03-12T11:46:22.368Z,4.20
2019-03-12T11:47:21.362Z,5.80
2019-03-12T11:48:21.399Z,5.90
2019-03-12T11:49:21.340Z,4.50
2019-03-12T11:50:21.524Z,4.90
2019-03-12T11:51:21.347Z,6.40
2019-03-12T11:52:21.302Z,4.90
2019-03-12T11:53:21.332Z,7.70
2019-03-12T11:54:21.330Z,3.60
2019-03-12T11:55:21.336Z,4.60
2019-03-12T11:56:21.313Z,3.90
2019-03-12T11:57:21.247Z,8.00
2019-03-12T11:58:21.239Z,5.00
2019-03-12T11:59:21.377Z,5.50
2019-03-12T12:00:21.242Z,7.80
2019-03-12T12:01:21.234Z,6.50
2019-03-12T12:02:21.224Z,5.20
2019-03-12T12:03:21.257Z,3.90
2019-03-12T12:04:21.200Z,5.00
2019-03-12T12:05:21.164Z,4.90
2019-03-12T12:06:21.260Z,6.30
2019-03-12T12:07:21.140Z,8.40
2019-03-12T12:08:21.135Z,5.90
2019-03-12T12:09:21.224Z,4.70
2019-03-12T12:10:21.161Z,6.60
2019-03-12T12:11:21.102Z,5.00
2019-03-12T12:12:21.087Z,4.40
2019-03-12T12:13:21.084Z,7.90
2019-03-12T12:14:21.086Z,7.60
2019-03-12T12:15:21.068Z,6.10
2019-03-12T12:16:21.063Z,3.70
2019-03-12T12:17:21.039Z,4.80
2019-03-12T12:18:21.023Z,5.70
2019-03-12T12:19:21.015Z,3.20
2019-03-12T12:20:29.618Z,4.70
2019-03-12T12:21:22.023Z,4.00
2019-03-12T12:22:21.001Z,5.00
2019-03-12T12:23:20.974Z,7.20
2019-03-12T12:24:20.959Z,4.90
2019-03-12T12:25:20.950Z,3.30
2019-03-12T12:26:21.541Z,4.40
2019-03-12T12:27:21.010Z,6.10
2019-03-12T12:28:20.937Z,3.90
2019-03-12T12:29:20.910Z,6.10
2019-03-12T12:30:20.922Z,6.30
2019-03-12T12:31:20.932Z,5.10
2019-03-12T12:32:20.907Z,6.70
2019-03-12T12:33:20.899Z,4.70
2019-03-12T12:34:20.855Z,4.10
2019-03-12T12:35:20.870Z,5.60
2019-03-12T12:36:20.829Z,5.60
2019-03-12T12:37:20.827Z,5.40
2019-03-12T12:38:20.811Z,4.50
2019-03-12T12:39:20.856Z,4.30
2019-03-12T12:40:20.787Z,10.00
2019-03-12T12:41:20.798Z,4.70
2019-03-12T12:42:20.791Z,8.00
2019-03-12T12:43:20.755Z,4.10
2019-03-12T12:44:20.745Z,5.50
2019-03-12T12:45:20.752Z,6.40
2019-03-12T12:46:20.752Z,7.20
2019-03-12T12:47:20.739Z,5.40
2019-03-12T12:48:20.704Z,5.10
2019-03-12T12:49:20.698Z,3.40
2019-03-12T12:50:20.682Z,4.70
2019-03-12T12:51:20.671Z,5.50
2019-03-12T12:52:20.717Z,5.00
2019-03-12T12:53:20.666Z,4.90
2019-03-12T12:54:20.684Z,3.70
2019-03-12T12:55:20.632Z,6.90
2019-03-12T12:56:20.624Z,4.70
2019-03-12T12:57:20.619Z,6.40
2019-03-12T12:58:20.663Z,5.50
2019-03-12T12:59:20.608Z,4.90
2019-03-12T13:00:20.600Z,5.70
2019-03-12T13:01:20.570Z,6.40